NCAR-RAP Real-Time Weather Data

Output produced by METARs form (08 May 2021  00:15 UTC)
found at http://weather.rap.ucar.edu/surface/
 
KWJF 072356Z 28020G27KT 10SM CLR 26/03 A2990 RMK AO2 PK WND 28029/2344 SLP112 T02610033 10283 20261 56008
KWJF 072256Z 28019G25KT 10SM CLR 27/03 A2991 RMK AO2 PK WND 26028/2243 SLP114 T02670033
KWJF 072156Z 24015G22KT 10SM CLR 28/06 A2992 RMK AO2 SLP115 T02780061
KWJF 072056Z 24013KT 10SM CLR 27/04 A2993 RMK AO2 PK WND 26028/2025 SLP118 T02720039 58010
KWJF 071956Z 25014G27KT 10SM CLR 28/03 A2994 RMK AO2 PK WND 26027/1950 SLP121 T02780028
KWJF 071856Z 26014G21KT 10SM CLR 27/03 A2996 RMK AO2 PK WND 25026/1828 SLP128 T02720028
KWJF 071756Z 25019G24KT 10SM CLR 26/02 A2996 RMK AO2 SLP130 T02610022 10261 20167 56006
KWJF 071656Z 29017KT 10SM CLR 25/02 A2996 RMK AO2 SLP131 T02500022
KWJF 071556Z 29019KT 10SM CLR 22/03 A2997 RMK AO2 PK WND 28026/1552 SLP136 T02170028
KWJF 071456Z 29011KT 10SM CLR 20/02 A2998 RMK AO2 SLP138 T02000022 53008
KWJF 071356Z 27020KT 10SM CLR 17/02 A2998 RMK AO2 SLP137 T01720022
KWJF 071256Z AUTO 28015KT 10SM CLR 17/02 A2996 RMK AO2 PK WND 27026/1206 SLP130 T01670022
KWJF 071156Z AUTO 26021KT 10SM CLR 17/03 A2995 RMK AO2 PK WND 27030/1129 SLP127 T01670028 10200 20161 56002